sensor_id;sensor_type;location;lat;lon;timestamp;P1;durP1;ratioP1;P2;durP2;ratioP2
3922;SDS011;1976;51.694;6.256;2024-02-14T00:00:38;6.10;;;2.73;;
3922;SDS011;1976;51.694;6.256;2024-02-14T00:03:06;13.43;;;2.60;;
3922;SDS011;1976;51.694;6.256;2024-02-14T00:05:31;5.87;;;3.33;;
3922;SDS011;1976;51.694;6.256;2024-02-14T00:07:57;2.30;;;2.10;;
3922;SDS011;1976;51.694;6.256;2024-02-14T00:10:23;4.53;;;2.73;;
3922;SDS011;1976;51.694;6.256;2024-02-14T00:12:48;9.10;;;3.07;;
3922;SDS011;1976;51.694;6.256;2024-02-14T00:15:14;6.40;;;3.00;;
3922;SDS011;1976;51.694;6.256;2024-02-14T00:17:39;3.10;;;2.87;;
3922;SDS011;1976;51.694;6.256;2024-02-14T00:20:05;2.60;;;2.40;;
3922;SDS011;1976;51.694;6.256;2024-02-14T00:22:32;10.23;;;3.53;;
3922;SDS011;1976;51.694;6.256;2024-02-14T00:24:57;2.83;;;2.63;;
3922;SDS011;1976;51.694;6.256;2024-02-14T00:27:23;3.00;;;2.50;;
3922;SDS011;1976;51.694;6.256;2024-02-14T00:29:50;5.00;;;2.80;;
3922;SDS011;1976;51.694;6.256;2024-02-14T00:32:16;3.30;;;3.00;;
3922;SDS011;1976;51.694;6.256;2024-02-14T00:34:42;2.80;;;2.60;;
3922;SDS011;1976;51.694;6.256;2024-02-14T00:37:08;4.10;;;2.67;;
3922;SDS011;1976;51.694;6.256;2024-02-14T00:39:33;3.73;;;2.50;;
3922;SDS011;1976;51.694;6.256;2024-02-14T00:41:59;5.60;;;3.53;;
3922;SDS011;1976;51.694;6.256;2024-02-14T00:44:24;3.47;;;2.90;;
3922;SDS011;1976;51.694;6.256;2024-02-14T00:46:55;3.30;;;2.80;;
3922;SDS011;1976;51.694;6.256;2024-02-14T00:49:22;2.40;;;2.00;;
3922;SDS011;1976;51.694;6.256;2024-02-14T00:51:47;3.30;;;2.53;;
3922;SDS011;1976;51.694;6.256;2024-02-14T00:54:13;6.00;;;2.60;;
3922;SDS011;1976;51.694;6.256;2024-02-14T00:56:38;3.13;;;2.30;;
3922;SDS011;1976;51.694;6.256;2024-02-14T00:59:05;2.40;;;1.73;;
3922;SDS011;1976;51.694;6.256;2024-02-14T01:01:31;10.97;;;3.43;;
3922;SDS011;1976;51.694;6.256;2024-02-14T01:03:56;5.03;;;2.93;;
3922;SDS011;1976;51.694;6.256;2024-02-14T01:06:22;2.53;;;2.30;;
3922;SDS011;1976;51.694;6.256;2024-02-14T01:08:47;3.77;;;3.03;;
3922;SDS011;1976;51.694;6.256;2024-02-14T01:11:13;2.63;;;2.43;;
3922;SDS011;1976;51.694;6.256;2024-02-14T01:13:38;2.53;;;2.33;;
3922;SDS011;1976;51.694;6.256;2024-02-14T01:16:04;11.53;;;3.07;;
3922;SDS011;1976;51.694;6.256;2024-02-14T01:18:30;4.87;;;3.27;;
3922;SDS011;1976;51.694;6.256;2024-02-14T01:20:56;3.40;;;3.10;;
3922;SDS011;1976;51.694;6.256;2024-02-14T01:23:23;5.13;;;2.43;;
3922;SDS011;1976;51.694;6.256;2024-02-14T01:25:49;10.17;;;3.40;;
3922;SDS011;1976;51.694;6.256;2024-02-14T01:28:15;6.70;;;3.27;;
3922;SDS011;1976;51.694;6.256;2024-02-14T01:30:42;1.87;;;1.77;;
3922;SDS011;1976;51.694;6.256;2024-02-14T01:33:08;4.43;;;1.87;;
3922;SDS011;1976;51.694;6.256;2024-02-14T01:35:33;2.83;;;2.63;;
3922;SDS011;1976;51.694;6.256;2024-02-14T01:37:59;2.63;;;2.40;;
3922;SDS011;1976;51.694;6.256;2024-02-14T01:40:25;2.70;;;2.50;;
3922;SDS011;1976;51.694;6.256;2024-02-14T01:42:51;2.93;;;2.33;;
3922;SDS011;1976;51.694;6.256;2024-02-14T01:45:17;2.70;;;2.50;;
3922;SDS011;1976;51.694;6.256;2024-02-14T01:47:43;2.27;;;2.10;;
3922;SDS011;1976;51.694;6.256;2024-02-14T01:50:09;1.93;;;1.80;;
3922;SDS011;1976;51.694;6.256;2024-02-14T01:52:36;3.50;;;3.20;;
3922;SDS011;1976;51.694;6.256;2024-02-14T01:55:03;2.10;;;2.00;;
3922;SDS011;1976;51.694;6.256;2024-02-14T01:57:30;5.23;;;3.23;;
3922;SDS011;1976;51.694;6.256;2024-02-14T01:59:56;8.97;;;2.20;;
3922;SDS011;1976;51.694;6.256;2024-02-14T02:02:25;2.10;;;2.00;;
3922;SDS011;1976;51.694;6.256;2024-02-14T02:04:52;6.77;;;3.80;;
3922;SDS011;1976;51.694;6.256;2024-02-14T02:07:17;3.20;;;2.90;;
3922;SDS011;1976;51.694;6.256;2024-02-14T02:09:44;2.30;;;2.10;;
3922;SDS011;1976;51.694;6.256;2024-02-14T02:12:10;3.47;;;3.00;;
3922;SDS011;1976;51.694;6.256;2024-02-14T02:14:36;2.20;;;2.00;;
3922;SDS011;1976;51.694;6.256;2024-02-14T02:17:02;2.87;;;2.67;;
3922;SDS011;1976;51.694;6.256;2024-02-14T02:19:32;3.00;;;2.37;;
3922;SDS011;1976;51.694;6.256;2024-02-14T02:21:59;5.27;;;2.90;;
3922;SDS011;1976;51.694;6.256;2024-02-14T02:24:24;2.73;;;2.17;;
3922;SDS011;1976;51.694;6.256;2024-02-14T02:26:50;5.57;;;3.57;;
3922;SDS011;1976;51.694;6.256;2024-02-14T02:29:16;3.27;;;2.97;;
3922;SDS011;1976;51.694;6.256;2024-02-14T02:31:41;2.73;;;2.30;;
3922;SDS011;1976;51.694;6.256;2024-02-14T02:34:07;2.30;;;2.10;;
3922;SDS011;1976;51.694;6.256;2024-02-14T02:36:35;3.80;;;2.47;;
3922;SDS011;1976;51.694;6.256;2024-02-14T02:39:02;3.03;;;2.70;;
3922;SDS011;1976;51.694;6.256;2024-02-14T02:41:29;2.47;;;2.27;;
3922;SDS011;1976;51.694;6.256;2024-02-14T02:43:56;4.70;;;2.90;;
3922;SDS011;1976;51.694;6.256;2024-02-14T02:46:22;5.10;;;3.13;;
3922;SDS011;1976;51.694;6.256;2024-02-14T02:48:48;4.07;;;3.20;;
3922;SDS011;1976;51.694;6.256;2024-02-14T02:51:15;3.03;;;2.70;;
3922;SDS011;1976;51.694;6.256;2024-02-14T02:53:42;5.60;;;3.53;;
3922;SDS011;1976;51.694;6.256;2024-02-14T02:56:08;2.17;;;2.07;;
3922;SDS011;1976;51.694;6.256;2024-02-14T02:58:34;3.30;;;2.90;;
3922;SDS011;1976;51.694;6.256;2024-02-14T03:00:59;2.07;;;1.87;;
3922;SDS011;1976;51.694;6.256;2024-02-14T03:03:25;4.07;;;2.83;;
3922;SDS011;1976;51.694;6.256;2024-02-14T03:05:53;3.40;;;2.80;;
3922;SDS011;1976;51.694;6.256;2024-02-14T03:08:20;5.13;;;2.97;;
3922;SDS011;1976;51.694;6.256;2024-02-14T03:10:46;6.80;;;3.40;;
3922;SDS011;1976;51.694;6.256;2024-02-14T03:13:14;3.67;;;3.37;;
3922;SDS011;1976;51.694;6.256;2024-02-14T03:15:41;4.47;;;3.23;;
3922;SDS011;1976;51.694;6.256;2024-02-14T03:18:08;5.50;;;3.40;;
3922;SDS011;1976;51.694;6.256;2024-02-14T03:20:35;3.23;;;2.90;;
3922;SDS011;1976;51.694;6.256;2024-02-14T03:23:01;3.33;;;2.27;;
3922;SDS011;1976;51.694;6.256;2024-02-14T03:25:28;2.70;;;2.50;;
3922;SDS011;1976;51.694;6.256;2024-02-14T03:27:54;7.63;;;2.57;;
3922;SDS011;1976;51.694;6.256;2024-02-14T03:30:22;3.23;;;2.93;;
3922;SDS011;1976;51.694;6.256;2024-02-14T03:32:48;5.50;;;3.20;;
3922;SDS011;1976;51.694;6.256;2024-02-14T03:35:14;2.33;;;1.53;;
3922;SDS011;1976;51.694;6.256;2024-02-14T03:37:41;8.30;;;3.57;;
3922;SDS011;1976;51.694;6.256;2024-02-14T03:40:08;2.17;;;2.07;;
3922;SDS011;1976;51.694;6.256;2024-02-14T03:42:34;3.80;;;2.60;;
3922;SDS011;1976;51.694;6.256;2024-02-14T03:45:01;2.90;;;2.33;;
3922;SDS011;1976;51.694;6.256;2024-02-14T03:47:33;4.30;;;2.13;;
3922;SDS011;1976;51.694;6.256;2024-02-14T03:49:59;3.30;;;3.00;;
3922;SDS011;1976;51.694;6.256;2024-02-14T03:52:26;37.90;;;3.10;;
3922;SDS011;1976;51.694;6.256;2024-02-14T03:54:52;2.73;;;2.53;;
3922;SDS011;1976;51.694;6.256;2024-02-14T03:57:18;5.30;;;2.77;;
3922;SDS011;1976;51.694;6.256;2024-02-14T03:59:44;6.03;;;4.33;;
3922;SDS011;1976;51.694;6.256;2024-02-14T04:02:10;9.30;;;2.73;;
3922;SDS011;1976;51.694;6.256;2024-02-14T04:04:41;3.60;;;2.40;;
3922;SDS011;1976;51.694;6.256;2024-02-14T04:07:07;3.60;;;2.77;;
3922;SDS011;1976;51.694;6.256;2024-02-14T04:09:36;2.50;;;2.40;;
3922;SDS011;1976;51.694;6.256;2024-02-14T04:12:02;3.23;;;2.60;;
3922;SDS011;1976;51.694;6.256;2024-02-14T04:14:27;7.00;;;3.13;;
3922;SDS011;1976;51.694;6.256;2024-02-14T04:16:53;2.20;;;2.00;;
3922;SDS011;1976;51.694;6.256;2024-02-14T04:19:19;5.73;;;2.10;;
3922;SDS011;1976;51.694;6.256;2024-02-14T04:21:45;5.20;;;2.40;;
3922;SDS011;1976;51.694;6.256;2024-02-14T04:24:11;3.13;;;2.80;;
3922;SDS011;1976;51.694;6.256;2024-02-14T04:26:37;2.80;;;2.60;;
3922;SDS011;1976;51.694;6.256;2024-02-14T04:29:02;2.60;;;2.20;;
3922;SDS011;1976;51.694;6.256;2024-02-14T04:31:28;3.30;;;2.60;;
3922;SDS011;1976;51.694;6.256;2024-02-14T04:33:57;3.03;;;2.77;;
3922;SDS011;1976;51.694;6.256;2024-02-14T04:36:23;4.40;;;2.87;;
3922;SDS011;1976;51.694;6.256;2024-02-14T04:38:49;3.43;;;2.80;;
3922;SDS011;1976;51.694;6.256;2024-02-14T04:41:15;2.97;;;2.67;;
3922;SDS011;1976;51.694;6.256;2024-02-14T04:43:41;8.43;;;3.67;;
3922;SDS011;1976;51.694;6.256;2024-02-14T04:46:07;3.90;;;2.60;;
3922;SDS011;1976;51.694;6.256;2024-02-14T04:48:34;4.90;;;2.80;;
3922;SDS011;1976;51.694;6.256;2024-02-14T04:51:00;3.90;;;3.37;;
3922;SDS011;1976;51.694;6.256;2024-02-14T04:53:26;6.87;;;4.10;;
3922;SDS011;1976;51.694;6.256;2024-02-14T04:55:52;3.13;;;2.90;;
3922;SDS011;1976;51.694;6.256;2024-02-14T04:58:18;3.07;;;2.77;;
3922;SDS011;1976;51.694;6.256;2024-02-14T05:00:44;7.60;;;2.80;;
3922;SDS011;1976;51.694;6.256;2024-02-14T05:03:10;2.80;;;2.60;;
3922;SDS011;1976;51.694;6.256;2024-02-14T05:05:35;6.53;;;3.70;;
3922;SDS011;1976;51.694;6.256;2024-02-14T05:08:01;3.70;;;3.10;;
3922;SDS011;1976;51.694;6.256;2024-02-14T05:10:30;3.77;;;3.47;;
3922;SDS011;1976;51.694;6.256;2024-02-14T05:12:56;4.20;;;3.70;;
3922;SDS011;1976;51.694;6.256;2024-02-14T05:15:22;8.97;;;2.93;;
3922;SDS011;1976;51.694;6.256;2024-02-14T05:17:48;5.00;;;3.27;;
3922;SDS011;1976;51.694;6.256;2024-02-14T05:20:15;3.43;;;2.20;;
3922;SDS011;1976;51.694;6.256;2024-02-14T05:22:41;1.90;;;1.80;;
3922;SDS011;1976;51.694;6.256;2024-02-14T05:25:07;4.10;;;2.93;;
3922;SDS011;1976;51.694;6.256;2024-02-14T05:27:34;3.33;;;2.73;;
3922;SDS011;1976;51.694;6.256;2024-02-14T05:30:00;3.50;;;3.00;;
3922;SDS011;1976;51.694;6.256;2024-02-14T05:32:26;7.23;;;3.70;;
3922;SDS011;1976;51.694;6.256;2024-02-14T05:34:52;3.30;;;2.77;;
3922;SDS011;1976;51.694;6.256;2024-02-14T05:37:17;7.63;;;3.80;;
3922;SDS011;1976;51.694;6.256;2024-02-14T05:39:43;2.90;;;2.63;;
3922;SDS011;1976;51.694;6.256;2024-02-14T05:42:08;6.10;;;3.20;;
3922;SDS011;1976;51.694;6.256;2024-02-14T05:44:34;2.43;;;2.23;;
3922;SDS011;1976;51.694;6.256;2024-02-14T05:46:59;13.33;;;3.00;;
3922;SDS011;1976;51.694;6.256;2024-02-14T05:49:25;2.50;;;2.33;;
3922;SDS011;1976;51.694;6.256;2024-02-14T05:51:51;5.40;;;3.83;;
3922;SDS011;1976;51.694;6.256;2024-02-14T05:54:18;2.87;;;2.67;;
3922;SDS011;1976;51.694;6.256;2024-02-14T05:56:44;2.60;;;2.40;;
3922;SDS011;1976;51.694;6.256;2024-02-14T05:59:10;2.77;;;2.53;;
3922;SDS011;1976;51.694;6.256;2024-02-14T06:01:36;3.47;;;3.17;;
3922;SDS011;1976;51.694;6.256;2024-02-14T06:04:02;6.00;;;2.60;;
3922;SDS011;1976;51.694;6.256;2024-02-14T06:06:27;4.30;;;2.57;;
3922;SDS011;1976;51.694;6.256;2024-02-14T06:08:53;5.30;;;3.10;;
3922;SDS011;1976;51.694;6.256;2024-02-14T06:11:19;2.77;;;2.40;;
3922;SDS011;1976;51.694;6.256;2024-02-14T06:13:46;5.70;;;4.10;;
3922;SDS011;1976;51.694;6.256;2024-02-14T06:16:12;2.40;;;2.20;;
3922;SDS011;1976;51.694;6.256;2024-02-14T06:18:38;2.93;;;2.60;;
3922;SDS011;1976;51.694;6.256;2024-02-14T06:21:05;5.83;;;3.30;;
3922;SDS011;1976;51.694;6.256;2024-02-14T06:23:31;3.10;;;2.63;;
3922;SDS011;1976;51.694;6.256;2024-02-14T06:25:56;4.20;;;3.73;;
3922;SDS011;1976;51.694;6.256;2024-02-14T06:28:24;3.03;;;2.70;;
3922;SDS011;1976;51.694;6.256;2024-02-14T06:30:49;3.83;;;3.27;;
3922;SDS011;1976;51.694;6.256;2024-02-14T06:33:15;3.20;;;2.90;;
3922;SDS011;1976;51.694;6.256;2024-02-14T06:35:41;0.90;;;0.90;;
3922;SDS011;1976;51.694;6.256;2024-02-14T06:38:06;0.60;;;0.60;;
3922;SDS011;1976;51.694;6.256;2024-02-14T06:40:32;0.60;;;0.60;;
3922;SDS011;1976;51.694;6.256;2024-02-14T06:42:58;0.60;;;0.60;;
3922;SDS011;1976;51.694;6.256;2024-02-14T06:45:32;0.70;;;0.70;;
3922;SDS011;1976;51.694;6.256;2024-02-14T06:47:57;0.60;;;0.60;;
3922;SDS011;1976;51.694;6.256;2024-02-14T06:50:23;0.60;;;0.60;;
3922;SDS011;1976;51.694;6.256;2024-02-14T06:52:52;0.70;;;0.70;;
3922;SDS011;1976;51.694;6.256;2024-02-14T06:55:18;0.60;;;0.60;;
3922;SDS011;1976;51.694;6.256;2024-02-14T06:57:43;0.60;;;0.60;;
3922;SDS011;1976;51.694;6.256;2024-02-14T07:00:09;0.60;;;0.60;;
3922;SDS011;1976;51.694;6.256;2024-02-14T07:02:35;0.60;;;0.60;;
3922;SDS011;1976;51.694;6.256;2024-02-14T07:05:00;0.60;;;0.60;;
3922;SDS011;1976;51.694;6.256;2024-02-14T07:07:27;0.60;;;0.60;;
3922;SDS011;1976;51.694;6.256;2024-02-14T07:09:52;0.60;;;0.60;;
3922;SDS011;1976;51.694;6.256;2024-02-14T07:12:18;0.60;;;0.60;;
3922;SDS011;1976;51.694;6.256;2024-02-14T07:14:44;0.60;;;0.60;;
3922;SDS011;1976;51.694;6.256;2024-02-14T07:17:09;0.70;;;0.70;;
3922;SDS011;1976;51.694;6.256;2024-02-14T07:19:35;0.70;;;0.70;;
3922;SDS011;1976;51.694;6.256;2024-02-14T07:22:00;1.77;;;1.67;;
3922;SDS011;1976;51.694;6.256;2024-02-14T07:24:26;0.70;;;0.70;;
3922;SDS011;1976;51.694;6.256;2024-02-14T07:26:51;0.60;;;0.60;;
3922;SDS011;1976;51.694;6.256;2024-02-14T07:29:17;0.60;;;0.60;;
3922;SDS011;1976;51.694;6.256;2024-02-14T07:31:42;0.70;;;0.70;;
3922;SDS011;1976;51.694;6.256;2024-02-14T07:34:08;0.60;;;0.60;;
3922;SDS011;1976;51.694;6.256;2024-02-14T07:36:34;0.70;;;0.70;;
3922;SDS011;1976;51.694;6.256;2024-02-14T07:39:00;0.60;;;0.60;;
3922;SDS011;1976;51.694;6.256;2024-02-14T07:41:25;0.60;;;0.60;;
3922;SDS011;1976;51.694;6.256;2024-02-14T07:43:51;0.70;;;0.70;;
3922;SDS011;1976;51.694;6.256;2024-02-14T07:46:18;0.60;;;0.60;;
3922;SDS011;1976;51.694;6.256;2024-02-14T07:48:44;0.60;;;0.60;;
3922;SDS011;1976;51.694;6.256;2024-02-14T07:51:10;5.73;;;2.10;;
3922;SDS011;1976;51.694;6.256;2024-02-14T07:53:36;1.27;;;1.27;;
3922;SDS011;1976;51.694;6.256;2024-02-14T07:56:01;0.60;;;0.60;;
3922;SDS011;1976;51.694;6.256;2024-02-14T07:58:27;0.90;;;0.90;;
3922;SDS011;1976;51.694;6.256;2024-02-14T08:00:53;0.60;;;0.60;;
3922;SDS011;1976;51.694;6.256;2024-02-14T08:03:18;0.60;;;0.60;;
3922;SDS011;1976;51.694;6.256;2024-02-14T08:05:44;0.60;;;0.60;;
3922;SDS011;1976;51.694;6.256;2024-02-14T08:08:10;0.60;;;0.60;;
3922;SDS011;1976;51.694;6.256;2024-02-14T08:10:35;0.60;;;0.60;;
3922;SDS011;1976;51.694;6.256;2024-02-14T08:13:01;2.00;;;1.80;;
3922;SDS011;1976;51.694;6.256;2024-02-14T08:15:29;0.70;;;0.70;;
3922;SDS011;1976;51.694;6.256;2024-02-14T08:17:55;0.60;;;0.60;;
3922;SDS011;1976;51.694;6.256;2024-02-14T08:20:21;0.73;;;0.73;;
3922;SDS011;1976;51.694;6.256;2024-02-14T08:22:48;0.60;;;0.60;;
3922;SDS011;1976;51.694;6.256;2024-02-14T08:25:14;0.60;;;0.60;;
3922;SDS011;1976;51.694;6.256;2024-02-14T08:27:39;0.80;;;0.80;;
3922;SDS011;1976;51.694;6.256;2024-02-14T08:30:05;0.60;;;0.60;;
3922;SDS011;1976;51.694;6.256;2024-02-14T08:32:32;0.70;;;0.70;;
3922;SDS011;1976;51.694;6.256;2024-02-14T08:34:58;0.67;;;0.67;;
3922;SDS011;1976;51.694;6.256;2024-02-14T08:37:23;8.37;;;5.30;;
3922;SDS011;1976;51.694;6.256;2024-02-14T08:39:50;4.60;;;4.10;;
3922;SDS011;1976;51.694;6.256;2024-02-14T08:42:15;0.60;;;0.60;;
3922;SDS011;1976;51.694;6.256;2024-02-14T08:44:41;0.60;;;0.60;;
3922;SDS011;1976;51.694;6.256;2024-02-14T08:47:07;0.70;;;0.70;;
3922;SDS011;1976;51.694;6.256;2024-02-14T08:49:32;3.90;;;3.53;;
3922;SDS011;1976;51.694;6.256;2024-02-14T08:51:58;6.00;;;5.40;;
3922;SDS011;1976;51.694;6.256;2024-02-14T08:54:24;15.90;;;6.60;;
3922;SDS011;1976;51.694;6.256;2024-02-14T08:56:50;0.60;;;0.60;;
3922;SDS011;1976;51.694;6.256;2024-02-14T08:59:18;0.80;;;0.80;;
3922;SDS011;1976;51.694;6.256;2024-02-14T09:01:44;0.60;;;0.60;;
3922;SDS011;1976;51.694;6.256;2024-02-14T09:04:10;0.60;;;0.60;;
3922;SDS011;1976;51.694;6.256;2024-02-14T09:06:36;5.53;;;4.50;;
3922;SDS011;1976;51.694;6.256;2024-02-14T09:09:04;7.23;;;5.97;;
3922;SDS011;1976;51.694;6.256;2024-02-14T09:11:29;9.03;;;6.10;;
3922;SDS011;1976;51.694;6.256;2024-02-14T09:13:56;8.80;;;4.30;;
3922;SDS011;1976;51.694;6.256;2024-02-14T09:16:27;0.60;;;0.60;;
3922;SDS011;1976;51.694;6.256;2024-02-14T09:18:53;0.60;;;0.60;;
3922;SDS011;1976;51.694;6.256;2024-02-14T09:21:18;1.73;;;1.63;;
3922;SDS011;1976;51.694;6.256;2024-02-14T09:23:46;0.67;;;0.67;;
3922;SDS011;1976;51.694;6.256;2024-02-14T09:26:12;0.90;;;0.90;;
3922;SDS011;1976;51.694;6.256;2024-02-14T09:28:41;5.87;;;3.40;;
3922;SDS011;1976;51.694;6.256;2024-02-14T09:31:06;17.63;;;6.30;;
3922;SDS011;1976;51.694;6.256;2024-02-14T09:33:34;16.73;;;4.83;;
3922;SDS011;1976;51.694;6.256;2024-02-14T09:36:01;13.63;;;7.30;;
3922;SDS011;1976;51.694;6.256;2024-02-14T09:38:27;7.17;;;5.60;;
3922;SDS011;1976;51.694;6.256;2024-02-14T09:40:54;11.17;;;6.97;;
3922;SDS011;1976;51.694;6.256;2024-02-14T09:43:37;11.40;;;7.33;;
3922;SDS011;1976;51.694;6.256;2024-02-14T09:46:06;5.70;;;5.10;;
3922;SDS011;1976;51.694;6.256;2024-02-14T09:48:32;6.00;;;4.17;;
3922;SDS011;1976;51.694;6.256;2024-02-14T09:50:58;13.43;;;4.60;;
3922;SDS011;1976;51.694;6.256;2024-02-14T09:53:24;9.20;;;5.03;;
3922;SDS011;1976;51.694;6.256;2024-02-14T09:55:53;14.57;;;7.13;;
3922;SDS011;1976;51.694;6.256;2024-02-14T09:58:20;3.83;;;3.47;;
3922;SDS011;1976;51.694;6.256;2024-02-14T10:00:46;14.53;;;4.60;;
3922;SDS011;1976;51.694;6.256;2024-02-14T10:03:11;11.53;;;4.57;;
3922;SDS011;1976;51.694;6.256;2024-02-14T10:05:37;7.10;;;6.03;;
3922;SDS011;1976;51.694;6.256;2024-02-14T10:08:03;7.13;;;5.80;;
3922;SDS011;1976;51.694;6.256;2024-02-14T10:10:31;8.13;;;4.10;;
3922;SDS011;1976;51.694;6.256;2024-02-14T10:12:59;6.87;;;5.97;;
3922;SDS011;1976;51.694;6.256;2024-02-14T10:15:25;4.83;;;2.87;;
3922;SDS011;1976;51.694;6.256;2024-02-14T10:17:51;8.63;;;5.10;;
3922;SDS011;1976;51.694;6.256;2024-02-14T10:20:17;4.50;;;4.10;;
3922;SDS011;1976;51.694;6.256;2024-02-14T10:22:43;2.70;;;2.50;;
3922;SDS011;1976;51.694;6.256;2024-02-14T10:25:09;13.43;;;4.47;;
3922;SDS011;1976;51.694;6.256;2024-02-14T10:27:38;6.17;;;4.37;;
3922;SDS011;1976;51.694;6.256;2024-02-14T10:30:08;5.50;;;3.87;;
3922;SDS011;1976;51.694;6.256;2024-02-14T10:32:37;5.73;;;4.20;;
3922;SDS011;1976;51.694;6.256;2024-02-14T10:35:12;4.43;;;3.70;;
3922;SDS011;1976;51.694;6.256;2024-02-14T10:37:38;5.93;;;3.53;;
3922;SDS011;1976;51.694;6.256;2024-02-14T10:40:04;9.33;;;4.87;;
3922;SDS011;1976;51.694;6.256;2024-02-14T10:42:31;4.80;;;4.40;;
3922;SDS011;1976;51.694;6.256;2024-02-14T10:44:57;8.07;;;4.30;;
3922;SDS011;1976;51.694;6.256;2024-02-14T10:47:24;10.70;;;5.33;;
3922;SDS011;1976;51.694;6.256;2024-02-14T10:49:57;4.53;;;3.43;;
3922;SDS011;1976;51.694;6.256;2024-02-14T10:52:27;3.00;;;2.77;;
3922;SDS011;1976;51.694;6.256;2024-02-14T10:54:56;6.17;;;2.83;;
3922;SDS011;1976;51.694;6.256;2024-02-14T10:57:22;3.90;;;3.47;;
3922;SDS011;1976;51.694;6.256;2024-02-14T10:59:49;5.00;;;4.10;;
3922;SDS011;1976;51.694;6.256;2024-02-14T11:02:16;8.33;;;3.40;;
3922;SDS011;1976;51.694;6.256;2024-02-14T11:04:43;3.63;;;3.30;;
3922;SDS011;1976;51.694;6.256;2024-02-14T11:07:10;2.87;;;2.67;;
3922;SDS011;1976;51.694;6.256;2024-02-14T11:09:36;2.67;;;2.47;;
3922;SDS011;1976;51.694;6.256;2024-02-14T11:12:03;5.00;;;2.73;;
3922;SDS011;1976;51.694;6.256;2024-02-14T11:14:35;7.30;;;5.67;;
3922;SDS011;1976;51.694;6.256;2024-02-14T11:17:04;4.53;;;3.67;;
3922;SDS011;1976;51.694;6.256;2024-02-14T11:19:34;4.70;;;3.87;;
3922;SDS011;1976;51.694;6.256;2024-02-14T11:22:10;5.00;;;3.83;;
3922;SDS011;1976;51.694;6.256;2024-02-14T11:24:46;7.70;;;4.57;;
3922;SDS011;1976;51.694;6.256;2024-02-14T11:27:12;5.33;;;4.30;;
3922;SDS011;1976;51.694;6.256;2024-02-14T11:29:39;3.63;;;3.10;;
3922;SDS011;1976;51.694;6.256;2024-02-14T11:32:08;4.00;;;3.50;;
3922;SDS011;1976;51.694;6.256;2024-02-14T11:34:36;4.93;;;3.93;;
3922;SDS011;1976;51.694;6.256;2024-02-14T11:37:02;5.80;;;2.37;;
3922;SDS011;1976;51.694;6.256;2024-02-14T11:39:30;10.37;;;4.13;;
3922;SDS011;1976;51.694;6.256;2024-02-14T11:41:58;3.60;;;3.30;;
3922;SDS011;1976;51.694;6.256;2024-02-14T11:44:24;5.57;;;3.03;;
3922;SDS011;1976;51.694;6.256;2024-02-14T11:46:51;6.20;;;4.00;;
3922;SDS011;1976;51.694;6.256;2024-02-14T11:49:16;3.90;;;3.60;;
3922;SDS011;1976;51.694;6.256;2024-02-14T11:51:42;3.30;;;3.00;;
3922;SDS011;1976;51.694;6.256;2024-02-14T11:54:07;4.43;;;3.00;;
3922;SDS011;1976;51.694;6.256;2024-02-14T11:56:37;3.27;;;2.97;;
3922;SDS011;1976;51.694;6.256;2024-02-14T11:59:04;3.40;;;3.20;;
3922;SDS011;1976;51.694;6.256;2024-02-14T12:01:31;2.47;;;2.23;;
3922;SDS011;1976;51.694;6.256;2024-02-14T12:04:01;3.93;;;3.53;;
3922;SDS011;1976;51.694;6.256;2024-02-14T12:06:30;15.63;;;3.67;;
3922;SDS011;1976;51.694;6.256;2024-02-14T12:08:59;3.20;;;3.00;;
3922;SDS011;1976;51.694;6.256;2024-02-14T12:11:30;2.20;;;2.00;;
3922;SDS011;1976;51.694;6.256;2024-02-14T12:14:05;2.27;;;2.10;;
3922;SDS011;1976;51.694;6.256;2024-02-14T12:16:31;2.30;;;2.20;;
3922;SDS011;1976;51.694;6.256;2024-02-14T12:19:13;4.23;;;1.97;;
3922;SDS011;1976;51.694;6.256;2024-02-14T12:21:40;1.93;;;1.83;;
3922;SDS011;1976;51.694;6.256;2024-02-14T12:24:10;4.30;;;2.70;;
3922;SDS011;1976;51.694;6.256;2024-02-14T12:26:37;3.43;;;2.97;;
3922;SDS011;1976;51.694;6.256;2024-02-14T12:29:03;2.60;;;2.13;;
3922;SDS011;1976;51.694;6.256;2024-02-14T12:31:30;2.97;;;2.10;;
3922;SDS011;1976;51.694;6.256;2024-02-14T12:33:56;2.40;;;2.20;;
3922;SDS011;1976;51.694;6.256;2024-02-14T12:36:25;3.17;;;2.00;;
3922;SDS011;1976;51.694;6.256;2024-02-14T12:38:52;2.10;;;2.00;;
3922;SDS011;1976;51.694;6.256;2024-02-14T12:41:19;4.07;;;2.87;;
3922;SDS011;1976;51.694;6.256;2024-02-14T12:43:44;2.00;;;1.90;;
3922;SDS011;1976;51.694;6.256;2024-02-14T12:46:10;3.03;;;2.30;;
3922;SDS011;1976;51.694;6.256;2024-02-14T12:48:35;5.07;;;2.20;;
3922;SDS011;1976;51.694;6.256;2024-02-14T12:51:01;1.37;;;1.27;;
3922;SDS011;1976;51.694;6.256;2024-02-14T12:53:26;5.73;;;2.07;;
3922;SDS011;1976;51.694;6.256;2024-02-14T12:55:52;0.60;;;0.60;;
3922;SDS011;1976;51.694;6.256;2024-02-14T12:58:18;0.60;;;0.60;;
3922;SDS011;1976;51.694;6.256;2024-02-14T13:00:44;0.60;;;0.60;;
3922;SDS011;1976;51.694;6.256;2024-02-14T13:03:10;0.60;;;0.60;;
3922;SDS011;1976;51.694;6.256;2024-02-14T13:05:36;0.60;;;0.60;;
3922;SDS011;1976;51.694;6.256;2024-02-14T13:08:02;0.57;;;0.57;;
3922;SDS011;1976;51.694;6.256;2024-02-14T13:10:28;0.60;;;0.60;;
3922;SDS011;1976;51.694;6.256;2024-02-14T13:12:56;0.60;;;0.60;;
3922;SDS011;1976;51.694;6.256;2024-02-14T13:15:22;0.60;;;0.60;;
3922;SDS011;1976;51.694;6.256;2024-02-14T13:17:47;0.60;;;0.60;;
3922;SDS011;1976;51.694;6.256;2024-02-14T13:20:13;0.60;;;0.60;;
3922;SDS011;1976;51.694;6.256;2024-02-14T13:22:40;0.60;;;0.60;;
3922;SDS011;1976;51.694;6.256;2024-02-14T13:25:07;0.60;;;0.60;;
3922;SDS011;1976;51.694;6.256;2024-02-14T13:27:34;0.60;;;0.60;;
3922;SDS011;1976;51.694;6.256;2024-02-14T13:30:00;0.60;;;0.60;;
3922;SDS011;1976;51.694;6.256;2024-02-14T13:32:27;3.40;;;1.23;;
3922;SDS011;1976;51.694;6.256;2024-02-14T13:34:52;2.80;;;2.60;;
3922;SDS011;1976;51.694;6.256;2024-02-14T13:37:18;0.60;;;0.60;;
3922;SDS011;1976;51.694;6.256;2024-02-14T13:39:44;0.60;;;0.60;;
3922;SDS011;1976;51.694;6.256;2024-02-14T13:42:10;0.60;;;0.60;;
3922;SDS011;1976;51.694;6.256;2024-02-14T13:44:36;0.73;;;0.73;;
3922;SDS011;1976;51.694;6.256;2024-02-14T13:47:01;0.60;;;0.60;;
3922;SDS011;1976;51.694;6.256;2024-02-14T13:49:27;0.60;;;0.60;;
3922;SDS011;1976;51.694;6.256;2024-02-14T13:51:53;0.60;;;0.60;;
3922;SDS011;1976;51.694;6.256;2024-02-14T13:54:19;0.60;;;0.60;;
3922;SDS011;1976;51.694;6.256;2024-02-14T13:56:45;0.60;;;0.60;;
3922;SDS011;1976;51.694;6.256;2024-02-14T13:59:13;0.60;;;0.60;;
3922;SDS011;1976;51.694;6.256;2024-02-14T14:01:39;0.60;;;0.60;;
3922;SDS011;1976;51.694;6.256;2024-02-14T14:04:04;0.60;;;0.60;;
3922;SDS011;1976;51.694;6.256;2024-02-14T14:06:30;0.60;;;0.60;;
3922;SDS011;1976;51.694;6.256;2024-02-14T14:08:56;0.60;;;0.60;;
3922;SDS011;1976;51.694;6.256;2024-02-14T14:11:22;0.60;;;0.60;;
3922;SDS011;1976;51.694;6.256;2024-02-14T14:13:48;0.60;;;0.60;;
3922;SDS011;1976;51.694;6.256;2024-02-14T14:16:14;0.60;;;0.60;;
3922;SDS011;1976;51.694;6.256;2024-02-14T14:18:40;0.70;;;0.70;;
3922;SDS011;1976;51.694;6.256;2024-02-14T14:21:05;0.60;;;0.60;;
3922;SDS011;1976;51.694;6.256;2024-02-14T14:23:31;0.70;;;0.70;;
3922;SDS011;1976;51.694;6.256;2024-02-14T14:25:57;0.60;;;0.60;;
3922;SDS011;1976;51.694;6.256;2024-02-14T14:28:23;6.47;;;3.60;;
3922;SDS011;1976;51.694;6.256;2024-02-14T14:30:52;0.60;;;0.60;;
3922;SDS011;1976;51.694;6.256;2024-02-14T14:33:21;0.60;;;0.60;;
3922;SDS011;1976;51.694;6.256;2024-02-14T14:35:47;0.60;;;0.60;;
3922;SDS011;1976;51.694;6.256;2024-02-14T14:38:18;0.60;;;0.60;;
3922;SDS011;1976;51.694;6.256;2024-02-14T14:40:44;0.60;;;0.60;;
3922;SDS011;1976;51.694;6.256;2024-02-14T14:43:13;0.60;;;0.60;;
3922;SDS011;1976;51.694;6.256;2024-02-14T14:45:39;1.13;;;1.07;;
3922;SDS011;1976;51.694;6.256;2024-02-14T14:48:06;0.60;;;0.60;;
3922;SDS011;1976;51.694;6.256;2024-02-14T14:50:34;0.60;;;0.60;;
3922;SDS011;1976;51.694;6.256;2024-02-14T14:53:03;0.60;;;0.60;;
3922;SDS011;1976;51.694;6.256;2024-02-14T14:55:49;0.60;;;0.60;;
3922;SDS011;1976;51.694;6.256;2024-02-14T14:58:16;0.60;;;0.60;;
3922;SDS011;1976;51.694;6.256;2024-02-14T15:00:42;0.60;;;0.60;;
3922;SDS011;1976;51.694;6.256;2024-02-14T15:03:09;0.60;;;0.60;;
3922;SDS011;1976;51.694;6.256;2024-02-14T15:05:35;0.60;;;0.60;;
3922;SDS011;1976;51.694;6.256;2024-02-14T15:08:03;0.60;;;0.60;;
3922;SDS011;1976;51.694;6.256;2024-02-14T15:10:29;0.60;;;0.60;;